Ana Sayfa
METAR-TAF:

METAR-TAF

Havaalanları :

Balıkesir Koca Seyit Havalimanı

Edremit, Türkiye

Enlem: 39-33-16N, Boylam: 27-00-49E, yükseklik: 15 m

Güncel hava durumu gözlemi

Rapor saat 21:50 UTC de 40 dakika önce yapıldı.
Rüzgar güney/güneydoğudan 3 kt
Sıcaklık 15°C
Nem 94%
Basınç 1018 hPa
Görüş mesafesi: 4000 m
Pus

METAR: LTFD 172150Z 16003KT 4000 BR NSC 15/14 Q1018

Saat: 01:30 (22:30 UTC)

Tahmin

Rapor saat 19:40 UTC de 2 saat ve 50 dakika önce yapıldı.
Ayın 17'si saat 21 UTC'den ayın 18'si saat 06 UTC'ye kadar geçerli Tahmin
Rüzgar değişken yönden 2 kt
Görüş mesafesi: 4000 m
Pus

TAF: LTFD 171940Z 1721/1806 VRB02KT 4000 BR NSC

4.000'den fazla havaalanı için hava durumu gözlemleri ve tahminleri (METAR ve TAF raporları).

Kullanılabilir istasyonlar harita üzerinde sarı ve kırmızı noktalarla gösterilir.

İstasyonun adını görmek için fareyi noktanın üzerinde gezdirin.

Sonrasında hava gözlem ve tahminlerini görmek için tıklayın.

Haritayı değiştirmek için: yaklaştırmak için siyah artı işaretli yeşil düğmeye ve uzaklaştırmak için de eksi işaretli düğmeye hızla tıklayın; bitişik haritalar için yeşil okları kullanın.


METAR-TAF: